Time;durP1;ratioP1;P1;durP2;ratioP2;P2;SDS_P1;SDS_P2;PMS_P1;PMS_P2;Temp;Humidity;BMP_temperature;BMP_pressure;BME280_temperature;BME280_humidity;BME280_pressure;Samples;Min_cycle;Max_cycle;Signal;HPM_P1;HPM_P2
2021/12/22 00:01:28;;;;;;;28.45;13.10;;;;;;;;;;4860702;29;20037;-83
2021/12/22 00:03:55;;;;;;;31.52;13.30;;;;;;;;;;4859456;29;20759;-84
2021/12/22 00:06:24;;;;;;;26.77;13.27;;;;;;;;;;4859297;29;20025;-82
2021/12/22 00:08:51;;;;;;;38.33;14.05;;;;;;;;;;4856952;29;20048;-84
2021/12/22 00:11:17;;;;;;;33.17;13.02;;;;;;;;;;4861432;29;20029;-84
2021/12/22 00:13:43;;;;;;;34.95;13.98;;;;;;;;;;4858853;29;20634;-83
2021/12/22 00:16:10;;;;;;;33.25;14.82;;;;;;;;;;4874764;29;20033;-83
2021/12/22 00:18:36;;;;;;;32.50;13.77;;;;;;;;;;4856361;29;20037;-83
2021/12/22 00:21:02;;;;;;;35.72;14.27;;;;;;;;;;4856763;29;20520;-84
2021/12/22 00:23:29;;;;;;;33.33;12.85;;;;;;;;;;4856236;29;20120;-84
2021/12/22 00:25:55;;;;;;;31.25;13.45;;;;;;;;;;4855502;29;20040;-83
2021/12/22 00:28:21;;;;;;;26.83;12.65;;;;;;;;;;4858632;29;20083;-83
2021/12/22 00:30:48;;;;;;;35.85;13.10;;;;;;;;;;4857556;29;20029;-83
2021/12/22 00:33:14;;;;;;;31.15;14.50;;;;;;;;;;4860202;29;20032;-83
2021/12/22 00:35:44;;;;;;;24.40;12.55;;;;;;;;;;4874283;29;20041;-83
2021/12/22 00:38:11;;;;;;;39.50;13.00;;;;;;;;;;4855589;29;20121;-83
2021/12/22 00:40:37;;;;;;;35.47;13.00;;;;;;;;;;4858602;29;20705;-83
2021/12/22 00:43:04;;;;;;;30.67;13.13;;;;;;;;;;4857355;29;20814;-80
2021/12/22 00:45:36;;;;;;;30.38;13.55;;;;;;;;;;4858320;29;20500;-80
2021/12/22 00:48:03;;;;;;;30.52;12.85;;;;;;;;;;4856326;29;20045;-80
2021/12/22 00:50:37;;;;;;;33.20;12.73;;;;;;;;;;4872440;29;20372;-80
2021/12/22 00:53:04;;;;;;;31.23;12.48;;;;;;;;;;4868118;29;20567;-80
2021/12/22 00:55:30;;;;;;;31.15;12.90;;;;;;;;;;4857551;29;20402;-80
2021/12/22 00:57:56;;;;;;;29.25;12.48;;;;;;;;;;4865546;29;20033;-81
2021/12/22 01:00:25;;;;;;;31.70;14.48;;;;;;;;;;4873957;29;20029;-80
2021/12/22 01:02:51;;;;;;;30.02;12.57;;;;;;;;;;4867893;29;20545;-80
2021/12/22 01:05:18;;;;;;;34.83;13.48;;;;;;;;;;4869713;29;20029;-84
2021/12/22 01:07:45;;;;;;;33.08;14.00;;;;;;;;;;4859717;29;20097;-82
2021/12/22 01:10:12;;;;;;;31.08;14.05;;;;;;;;;;4846166;29;20038;-83
2021/12/22 01:12:38;;;;;;;34.38;13.45;;;;;;;;;;4839246;29;20499;-83
2021/12/22 01:15:05;;;;;;;30.95;13.25;;;;;;;;;;4846814;29;20038;-84
2021/12/22 01:17:38;;;;;;;41.05;14.23;;;;;;;;;;4856026;29;20048;-84
2021/12/22 01:20:15;;;;;;;36.40;15.55;;;;;;;;;;4838573;29;20623;-84
2021/12/22 01:25:09;;;;;;;28.13;14.43;;;;;;;;;;4852807;29;21621;-83
2021/12/22 01:27:39;;;;;;;33.10;14.38;;;;;;;;;;4835496;29;20041;-83
2021/12/22 01:30:09;;;;;;;29.45;13.10;;;;;;;;;;4852068;29;20391;-84
2021/12/22 01:32:35;;;;;;;31.20;13.35;;;;;;;;;;4837242;29;20133;-84
2021/12/22 01:35:01;;;;;;;36.95;13.75;;;;;;;;;;4837536;29;20021;-82
2021/12/22 01:37:27;;;;;;;35.10;14.85;;;;;;;;;;4849292;29;20037;-84
2021/12/22 01:39:53;;;;;;;33.50;14.30;;;;;;;;;;4835923;29;20120;-80
2021/12/22 01:42:19;;;;;;;29.20;13.90;;;;;;;;;;4837218;29;20618;-80
2021/12/22 01:45:01;;;;;;;40.42;14.32;;;;;;;;;;4850064;29;20047;-80
2021/12/22 01:50:14;;;;;;;30.60;12.95;;;;;;;;;;4850451;29;20513;-80
2021/12/22 01:52:40;;;;;;;26.33;13.50;;;;;;;;;;4834622;29;20501;-81
2021/12/22 01:55:14;;;;;;;27.98;12.32;;;;;;;;;;4834930;29;20410;-79
2021/12/22 01:57:48;;;;;;;26.58;13.48;;;;;;;;;;4837221;29;20426;-80
2021/12/22 02:00:15;;;;;;;28.50;13.30;;;;;;;;;;4834717;29;20029;-81
2021/12/22 02:02:44;;;;;;;38.85;13.38;;;;;;;;;;4836138;29;20121;-81
2021/12/22 02:05:11;;;;;;;33.60;12.45;;;;;;;;;;4850953;29;20407;-80
2021/12/22 02:07:37;;;;;;;32.25;12.32;;;;;;;;;;4836772;29;20049;-80
2021/12/22 02:10:21;;;;;;;30.15;13.40;;;;;;;;;;4853495;29;20037;-80
2021/12/22 02:12:51;;;;;;;30.73;13.15;;;;;;;;;;4836283;29;20104;-80
2021/12/22 02:15:17;;;;;;;34.22;13.52;;;;;;;;;;4850361;29;20573;-80
2021/12/22 02:17:44;;;;;;;34.80;13.07;;;;;;;;;;4833882;29;20029;-81
2021/12/22 02:20:10;;;;;;;35.17;14.50;;;;;;;;;;4854219;29;20486;-80
2021/12/22 02:22:39;;;;;;;36.35;12.80;;;;;;;;;;4833170;29;20062;-80
2021/12/22 02:25:13;;;;;;;31.17;13.63;;;;;;;;;;4835902;29;20093;-80
2021/12/22 02:27:50;;;;;;;37.20;14.40;;;;;;;;;;4836210;29;20431;-80
2021/12/22 02:30:25;;;;;;;36.83;13.52;;;;;;;;;;4835591;29;20037;-80
2021/12/22 02:35:25;;;;;;;33.13;11.65;;;;;;;;;;4850913;29;20014;-84
2021/12/22 02:37:51;;;;;;;33.55;13.10;;;;;;;;;;4852286;29;20494;-85
2021/12/22 02:40:24;;;;;;;33.33;14.45;;;;;;;;;;4831380;29;20049;-85
2021/12/22 02:42:53;;;;;;;28.48;14.20;;;;;;;;;;4837505;29;20502;-84
2021/12/22 02:45:20;;;;;;;31.83;14.02;;;;;;;;;;4838309;29;20049;-84
2021/12/22 02:47:47;;;;;;;31.30;12.90;;;;;;;;;;4833201;29;20130;-84
2021/12/22 02:50:14;;;;;;;36.17;15.07;;;;;;;;;;4836406;29;20064;-85
2021/12/22 02:52:57;;;;;;;36.00;14.30;;;;;;;;;;4837139;29;20037;-84
2021/12/22 02:55:30;;;;;;;31.25;15.23;;;;;;;;;;4840909;29;20053;-84
2021/12/22 02:57:59;;;;;;;31.27;14.52;;;;;;;;;;4852714;29;20026;-84
2021/12/22 03:05:21;;;;;;;33.10;15.30;;;;;;;;;;4851614;29;20495;-84
2021/12/22 03:07:48;;;;;;;38.67;14.57;;;;;;;;;;4860842;29;20081;-84
2021/12/22 03:10:17;;;;;;;32.33;14.50;;;;;;;;;;4855154;29;20033;-85
2021/12/22 03:12:50;;;;;;;31.90;14.25;;;;;;;;;;4855482;29;20029;-84
2021/12/22 03:15:16;;;;;;;37.63;14.90;;;;;;;;;;4861811;29;20037;-83
2021/12/22 03:17:43;;;;;;;37.35;14.52;;;;;;;;;;4852214;29;20556;-84
2021/12/22 03:20:13;;;;;;;32.33;14.15;;;;;;;;;;4865889;29;20049;-84
2021/12/22 03:22:42;;;;;;;38.03;12.93;;;;;;;;;;4857813;29;20085;-84
2021/12/22 03:25:14;;;;;;;37.70;12.65;;;;;;;;;;4871944;29;20083;-84
2021/12/22 03:27:40;;;;;;;29.10;13.65;;;;;;;;;;4856348;29;20664;-83
2021/12/22 03:30:07;;;;;;;32.50;13.75;;;;;;;;;;4859765;29;20036;-84
2021/12/22 03:32:33;;;;;;;38.20;13.98;;;;;;;;;;4859217;29;20029;-84
2021/12/22 03:35:00;;;;;;;35.15;14.30;;;;;;;;;;4874172;29;20021;-84
2021/12/22 03:37:26;;;;;;;37.63;14.80;;;;;;;;;;4874732;29;20052;-84
2021/12/22 03:39:52;;;;;;;33.03;15.50;;;;;;;;;;4858156;29;20037;-84
2021/12/22 03:42:18;;;;;;;28.27;13.70;;;;;;;;;;4854740;29;20081;-84
2021/12/22 03:44:44;;;;;;;28.00;12.85;;;;;;;;;;4872011;29;20041;-84
2021/12/22 03:47:10;;;;;;;35.92;14.40;;;;;;;;;;4856933;29;20030;-84
2021/12/22 03:49:37;;;;;;;33.97;15.00;;;;;;;;;;4858878;29;20660;-84
2021/12/22 03:52:06;;;;;;;35.42;14.25;;;;;;;;;;4869997;29;20053;-84
2021/12/22 03:54:33;;;;;;;34.78;14.15;;;;;;;;;;4853827;29;20552;-84
2021/12/22 03:56:59;;;;;;;34.28;12.90;;;;;;;;;;4855174;29;20036;-84
2021/12/22 03:59:25;;;;;;;28.88;13.50;;;;;;;;;;4873644;29;20493;-83
2021/12/22 04:01:52;;;;;;;28.13;12.55;;;;;;;;;;4873572;29;20067;-80
2021/12/22 04:04:19;;;;;;;37.63;13.27;;;;;;;;;;4868675;29;20153;-80
2021/12/22 04:06:46;;;;;;;25.77;12.40;;;;;;;;;;4857323;29;20037;-80
2021/12/22 04:09:14;;;;;;;27.25;12.32;;;;;;;;;;4855255;29;20379;-80
2021/12/22 04:11:40;;;;;;;29.60;12.50;;;;;;;;;;4870692;29;20040;-81
2021/12/22 04:14:06;;;;;;;29.00;11.88;;;;;;;;;;4870293;29;20053;-80
2021/12/22 04:16:33;;;;;;;29.73;12.82;;;;;;;;;;4863301;29;20486;-80
2021/12/22 04:18:59;;;;;;;34.17;13.00;;;;;;;;;;4856966;29;20030;-80
2021/12/22 04:21:26;;;;;;;33.58;13.77;;;;;;;;;;4872661;29;20512;-80
2021/12/22 04:23:52;;;;;;;29.98;11.90;;;;;;;;;;4857479;29;20040;-81
2021/12/22 04:26:18;;;;;;;33.47;12.13;;;;;;;;;;4871396;29;20044;-81
2021/12/22 04:28:44;;;;;;;30.83;13.02;;;;;;;;;;4871626;29;20093;-80
2021/12/22 04:31:10;;;;;;;25.55;12.38;;;;;;;;;;4855767;29;20474;-79
2021/12/22 04:33:36;;;;;;;23.85;11.43;;;;;;;;;;4854826;29;20033;-80
2021/12/22 04:36:02;;;;;;;28.38;11.38;;;;;;;;;;4870924;29;20565;-80
2021/12/22 04:38:28;;;;;;;27.17;12.23;;;;;;;;;;4858102;29;20088;-79
2021/12/22 04:40:54;;;;;;;27.15;13.00;;;;;;;;;;4856015;29;20040;-80
2021/12/22 04:43:20;;;;;;;30.30;12.68;;;;;;;;;;4855882;29;20041;-80
2021/12/22 04:45:46;;;;;;;24.45;11.68;;;;;;;;;;4853490;29;20401;-79
2021/12/22 04:48:13;;;;;;;30.42;12.38;;;;;;;;;;4868769;29;20037;-80
2021/12/22 04:50:39;;;;;;;28.95;12.05;;;;;;;;;;4857703;29;20569;-80
2021/12/22 04:53:18;;;;;;;28.25;12.07;;;;;;;;;;4869975;29;20021;-81
2021/12/22 04:55:44;;;;;;;37.15;12.77;;;;;;;;;;4856123;29;20037;-84
2021/12/22 04:58:10;;;;;;;26.92;11.75;;;;;;;;;;4855420;29;20021;-83
2021/12/22 05:00:37;;;;;;;37.47;12.48;;;;;;;;;;4858262;29;20061;-83
2021/12/22 05:03:04;;;;;;;33.13;12.88;;;;;;;;;;4852694;29;20494;-84
2021/12/22 05:05:30;;;;;;;28.48;12.05;;;;;;;;;;4854671;29;20040;-81
2021/12/22 05:07:56;;;;;;;34.08;11.82;;;;;;;;;;4847632;29;20056;-84
2021/12/22 05:10:23;;;;;;;33.97;11.63;;;;;;;;;;4854223;29;20446;-84
2021/12/22 05:12:49;;;;;;;29.73;11.90;;;;;;;;;;4851883;29;20423;-84
2021/12/22 05:15:21;;;;;;;28.20;11.95;;;;;;;;;;4837216;29;20045;-84
2021/12/22 05:20:14;;;;;;;23.13;10.25;;;;;;;;;;4853597;29;20096;-84
2021/12/22 05:22:40;;;;;;;30.45;11.55;;;;;;;;;;4838290;29;20037;-84
2021/12/22 05:25:07;;;;;;;32.22;11.70;;;;;;;;;;4856038;29;20545;-84
2021/12/22 05:27:33;;;;;;;30.98;12.52;;;;;;;;;;4838560;29;20485;-79
2021/12/22 05:29:59;;;;;;;27.60;11.13;;;;;;;;;;4836194;29;20046;-80
2021/12/22 05:32:31;;;;;;;30.10;12.13;;;;;;;;;;4854799;29;20025;-84
2021/12/22 05:34:58;;;;;;;31.58;10.80;;;;;;;;;;4856534;29;20569;-84
2021/12/22 05:37:24;;;;;;;31.42;11.10;;;;;;;;;;4837786;29;20124;-84
2021/12/22 05:39:50;;;;;;;29.25;10.73;;;;;;;;;;4853926;29;20270;-84
2021/12/22 05:42:16;;;;;;;32.88;11.50;;;;;;;;;;4838334;29;20058;-84
2021/12/22 05:44:42;;;;;;;30.42;12.18;;;;;;;;;;4836966;29;20041;-84
2021/12/22 05:47:09;;;;;;;36.53;12.70;;;;;;;;;;4852520;29;20033;-84
2021/12/22 05:49:35;;;;;;;31.90;12.00;;;;;;;;;;4837391;29;20033;-84
2021/12/22 05:52:01;;;;;;;30.65;11.85;;;;;;;;;;4851501;29;20406;-84
2021/12/22 05:54:27;;;;;;;27.70;11.30;;;;;;;;;;4834244;29;20780;-83
2021/12/22 05:56:53;;;;;;;24.15;11.48;;;;;;;;;;4836049;29;20042;-84
2021/12/22 05:59:19;;;;;;;39.70;11.85;;;;;;;;;;4850748;29;20060;-84
2021/12/22 06:01:45;;;;;;;33.90;12.65;;;;;;;;;;4853146;29;20044;-84
2021/12/22 06:04:18;;;;;;;41.90;16.02;;;;;;;;;;4834744;29;20042;-84
2021/12/22 06:06:44;;;;;;;29.63;11.98;;;;;;;;;;4836905;29;20071;-84
2021/12/22 06:09:10;;;;;;;28.17;11.48;;;;;;;;;;4868578;29;20634;-80
2021/12/22 06:11:36;;;;;;;34.55;11.77;;;;;;;;;;4856447;29;20029;-80
2021/12/22 06:14:03;;;;;;;30.17;11.82;;;;;;;;;;4853773;29;20497;-80
2021/12/22 06:16:30;;;;;;;29.77;11.98;;;;;;;;;;4866185;29;20397;-80
2021/12/22 06:18:58;;;;;;;34.10;11.55;;;;;;;;;;4868728;29;20538;-80
2021/12/22 06:21:25;;;;;;;31.23;12.65;;;;;;;;;;4852009;29;20040;-80
2021/12/22 06:23:51;;;;;;;32.13;12.15;;;;;;;;;;4871365;29;20045;-80
2021/12/22 06:26:17;;;;;;;30.88;11.93;;;;;;;;;;4868149;29;20047;-79
2021/12/22 06:28:43;;;;;;;34.42;10.38;;;;;;;;;;4856137;29;20036;-79
2021/12/22 06:31:09;;;;;;;25.75;11.43;;;;;;;;;;4867873;29;20523;-80
2021/12/22 06:33:36;;;;;;;35.17;13.43;;;;;;;;;;4853119;29;20048;-80
2021/12/22 06:36:02;;;;;;;29.90;11.52;;;;;;;;;;4875157;29;20093;-80
2021/12/22 06:38:31;;;;;;;30.83;11.73;;;;;;;;;;4849245;29;20122;-80
2021/12/22 06:40:59;;;;;;;40.70;12.60;;;;;;;;;;4854157;29;20139;-81
2021/12/22 06:43:31;;;;;;;32.80;12.23;;;;;;;;;;4869789;29;20021;-80
2021/12/22 06:45:57;;;;;;;42.20;13.05;;;;;;;;;;4870146;29;20025;-80
2021/12/22 06:48:23;;;;;;;31.40;12.30;;;;;;;;;;4850341;29;20865;-80
2021/12/22 06:50:49;;;;;;;32.05;11.68;;;;;;;;;;4854417;29;20029;-80
2021/12/22 06:53:15;;;;;;;32.83;13.35;;;;;;;;;;4854887;29;20857;-81
2021/12/22 06:55:42;;;;;;;33.17;12.27;;;;;;;;;;4871733;29;20037;-80
2021/12/22 06:58:08;;;;;;;36.75;12.52;;;;;;;;;;4863714;29;20048;-80
2021/12/22 07:00:36;;;;;;;77.25;25.10;;;;;;;;;;4859269;29;20033;-80
2021/12/22 07:03:04;;;;;;;40.50;13.40;;;;;;;;;;4860777;29;20032;-80
2021/12/22 07:05:30;;;;;;;28.60;12.32;;;;;;;;;;4856330;29;20227;-80
2021/12/22 07:07:56;;;;;;;39.38;13.07;;;;;;;;;;4852833;29;20463;-80
2021/12/22 07:10:22;;;;;;;38.63;13.00;;;;;;;;;;4837592;29;20274;-80
2021/12/22 07:12:48;;;;;;;39.15;12.75;;;;;;;;;;4856043;29;20494;-80
2021/12/22 07:15:16;;;;;;;39.13;12.93;;;;;;;;;;4839435;29;20768;-81
2021/12/22 07:17:43;;;;;;;36.38;13.65;;;;;;;;;;4841683;29;20033;-80
2021/12/22 07:20:09;;;;;;;32.13;12.88;;;;;;;;;;4842047;29;20037;-81
2021/12/22 07:22:35;;;;;;;31.40;13.48;;;;;;;;;;4852857;29;20118;-81
2021/12/22 07:25:01;;;;;;;24.27;6.60;;;;;;;;;;4853491;29;20033;-80
2021/12/22 07:27:28;;;;;;;28.17;9.43;;;;;;;;;;4838498;29;20046;-81
2021/12/22 07:29:54;;;;;;;43.83;13.45;;;;;;;;;;4843219;29;20036;-80
2021/12/22 07:32:20;;;;;;;29.88;12.18;;;;;;;;;;4852432;29;20122;-80
2021/12/22 07:35:04;;;;;;;35.10;13.07;;;;;;;;;;4851108;29;20068;-81
2021/12/22 07:37:57;;;;;;;40.38;13.18;;;;;;;;;;4841609;29;20067;-80
2021/12/22 07:40:23;;;;;;;36.78;12.02;;;;;;;;;;4837750;29;20394;-80
2021/12/22 07:42:49;;;;;;;26.85;11.00;;;;;;;;;;4839422;29;20124;-79
2021/12/22 07:45:15;;;;;;;37.78;14.65;;;;;;;;;;4838558;29;20462;-80
2021/12/22 07:47:42;;;;;;;30.50;13.50;;;;;;;;;;4855955;29;20063;-81
2021/12/22 07:50:08;;;;;;;38.38;13.68;;;;;;;;;;4839231;29;20046;-80
2021/12/22 07:52:34;;;;;;;38.65;12.85;;;;;;;;;;4842472;29;20033;-84
2021/12/22 07:55:00;;;;;;;25.55;10.32;;;;;;;;;;4840789;29;20033;-84
2021/12/22 07:57:26;;;;;;;30.52;12.13;;;;;;;;;;4838510;29;20116;-83
2021/12/22 07:59:52;;;;;;;32.45;11.82;;;;;;;;;;4855213;29;20157;-84
2021/12/22 08:02:18;;;;;;;24.58;11.52;;;;;;;;;;4839289;29;20049;-84
2021/12/22 08:04:45;;;;;;;24.83;8.77;;;;;;;;;;4843761;29;20167;-83
2021/12/22 08:07:11;;;;;;;32.60;11.68;;;;;;;;;;4843366;29;20029;-83
2021/12/22 08:09:37;;;;;;;27.42;10.65;;;;;;;;;;4859014;29;20040;-83
2021/12/22 08:12:06;;;;;;;27.60;12.00;;;;;;;;;;4857208;29;20033;-83
2021/12/22 08:14:33;;;;;;;26.75;10.45;;;;;;;;;;4875741;29;20486;-83
2021/12/22 08:16:59;;;;;;;27.83;10.65;;;;;;;;;;4858537;29;20056;-84
2021/12/22 08:19:25;;;;;;;28.55;11.27;;;;;;;;;;4876017;29;20025;-83
2021/12/22 08:21:51;;;;;;;29.58;11.38;;;;;;;;;;4871535;29;20692;-84
2021/12/22 08:24:17;;;;;;;30.38;12.77;;;;;;;;;;4850552;29;20204;-84
2021/12/22 08:26:44;;;;;;;32.92;13.38;;;;;;;;;;4857651;29;20164;-84
2021/12/22 08:29:10;;;;;;;33.90;12.77;;;;;;;;;;4856816;29;20037;-84
2021/12/22 08:31:36;;;;;;;31.55;13.20;;;;;;;;;;4855188;29;20088;-83
2021/12/22 08:34:03;;;;;;;39.85;13.02;;;;;;;;;;4871156;29;20633;-84
2021/12/22 08:39:14;;;;;;;35.75;12.75;;;;;;;;;;4872298;29;20056;-83
2021/12/22 08:41:41;;;;;;;30.83;12.68;;;;;;;;;;4857251;29;20144;-83
2021/12/22 08:44:08;;;;;;;33.05;13.40;;;;;;;;;;4855733;29;20040;-83
2021/12/22 08:46:35;;;;;;;38.58;14.32;;;;;;;;;;4855434;29;20669;-84
2021/12/22 08:49:03;;;;;;;31.15;12.48;;;;;;;;;;4858077;29;20128;-84
2021/12/22 08:51:29;;;;;;;31.13;12.18;;;;;;;;;;4865562;29;20029;-83
2021/12/22 08:53:55;;;;;;;36.17;12.48;;;;;;;;;;4869333;29;20148;-84
2021/12/22 08:56:21;;;;;;;31.15;12.00;;;;;;;;;;4856653;29;20037;-83
2021/12/22 08:58:47;;;;;;;39.83;13.00;;;;;;;;;;4856332;29;20100;-84
2021/12/22 09:01:13;;;;;;;35.53;13.02;;;;;;;;;;4854758;29;20037;-80
2021/12/22 09:03:39;;;;;;;29.90;12.68;;;;;;;;;;4853051;29;20461;-80
2021/12/22 09:06:05;;;;;;;30.52;12.27;;;;;;;;;;4854455;29;20429;-80
2021/12/22 09:08:38;;;;;;;39.42;12.20;;;;;;;;;;4854769;29;20088;-80
2021/12/22 09:11:12;;;;;;;34.67;13.18;;;;;;;;;;4856392;29;20253;-80
2021/12/22 09:13:40;;;;;;;34.20;11.85;;;;;;;;;;4862990;29;20386;-80
2021/12/22 09:16:07;;;;;;;44.17;11.95;;;;;;;;;;4858661;29;20036;-80
2021/12/22 09:18:33;;;;;;;37.78;12.27;;;;;;;;;;4854385;29;20041;-81
2021/12/22 09:20:59;;;;;;;43.97;12.20;;;;;;;;;;4857847;29;20477;-80
2021/12/22 09:23:25;;;;;;;33.35;11.95;;;;;;;;;;4851316;29;20040;-80
2021/12/22 09:25:51;;;;;;;39.53;12.02;;;;;;;;;;4850426;29;20047;-80
2021/12/22 09:28:17;;;;;;;32.25;11.73;;;;;;;;;;4867524;29;20037;-79
2021/12/22 09:30:44;;;;;;;35.15;13.00;;;;;;;;;;4874619;29;20076;-80
2021/12/22 09:33:11;;;;;;;34.08;12.57;;;;;;;;;;4853473;29;20037;-80
2021/12/22 09:35:38;;;;;;;31.10;11.75;;;;;;;;;;4854468;29;20033;-80
2021/12/22 09:38:04;;;;;;;37.70;13.32;;;;;;;;;;4853322;29;20089;-80
2021/12/22 09:40:30;;;;;;;10.82;5.65;;;;;;;;;;4854782;29;20037;-81
2021/12/22 09:42:56;;;;;;;27.17;12.15;;;;;;;;;;4870647;29;20037;-80
2021/12/22 09:45:25;;;;;;;23.98;8.93;;;;;;;;;;4854409;29;20040;-80
2021/12/22 09:50:49;;;;;;;35.70;10.82;;;;;;;;;;4870931;29;20041;-80
2021/12/22 09:53:19;;;;;;;35.42;12.43;;;;;;;;;;4852109;29;20025;-81
2021/12/22 09:55:45;;;;;;;32.03;12.57;;;;;;;;;;4867951;29;20281;-81
2021/12/22 09:58:11;;;;;;;31.98;12.18;;;;;;;;;;4866063;29;20067;-81
2021/12/22 10:00:38;;;;;;;30.85;10.95;;;;;;;;;;4865758;29;20120;-81
2021/12/22 10:03:05;;;;;;;29.38;11.75;;;;;;;;;;4854006;29;20042;-79
2021/12/22 10:05:32;;;;;;;29.02;11.50;;;;;;;;;;4868491;29;20100;-80
2021/12/22 10:08:05;;;;;;;20.27;7.93;;;;;;;;;;4867859;29;20056;-81
2021/12/22 10:10:31;;;;;;;28.27;12.18;;;;;;;;;;4865410;29;20101;-80
2021/12/22 10:13:08;;;;;;;29.17;10.48;;;;;;;;;;4868257;29;20032;-80
2021/12/22 10:15:35;;;;;;;32.90;9.98;;;;;;;;;;4852594;29;20053;-81
2021/12/22 10:18:12;;;;;;;24.25;9.65;;;;;;;;;;4849813;29;20493;-79
2021/12/22 10:20:39;;;;;;;25.25;10.05;;;;;;;;;;4855324;29;20128;-79
2021/12/22 10:23:19;;;;;;;21.15;5.85;;;;;;;;;;4855806;29;20213;-81
2021/12/22 10:25:50;;;;;;;20.17;6.15;;;;;;;;;;4866256;29;20553;-80
2021/12/22 10:28:19;;;;;;;31.50;12.25;;;;;;;;;;4869020;29;20509;-80
2021/12/22 10:30:45;;;;;;;29.63;10.85;;;;;;;;;;4866393;29;20029;-80
2021/12/22 10:33:14;;;;;;;32.15;11.20;;;;;;;;;;4855916;29;20033;-80
2021/12/22 10:35:41;;;;;;;30.27;11.95;;;;;;;;;;4867610;29;20039;-80
2021/12/22 10:38:09;;;;;;;27.63;11.63;;;;;;;;;;4852875;29;20037;-80
2021/12/22 10:40:37;;;;;;;31.33;11.25;;;;;;;;;;4872910;29;20029;-80
2021/12/22 10:43:05;;;;;;;29.27;12.30;;;;;;;;;;4850964;29;20374;-79
2021/12/22 10:45:34;;;;;;;27.23;11.60;;;;;;;;;;4852520;29;20545;-79
2021/12/22 10:50:46;;;;;;;28.90;11.18;;;;;;;;;;4866866;29;20071;-81
2021/12/22 10:53:15;;;;;;;10.50;4.90;;;;;;;;;;4852776;29;20250;-81
2021/12/22 10:55:43;;;;;;;30.73;11.48;;;;;;;;;;4867388;29;20098;-81
2021/12/22 10:58:19;;;;;;;27.25;10.93;;;;;;;;;;4850642;29;20036;-81
2021/12/22 11:00:59;;;;;;;22.65;10.50;;;;;;;;;;4861553;29;20041;-80
2021/12/22 11:03:32;;;;;;;24.90;10.88;;;;;;;;;;4870591;29;20080;-81
2021/12/22 11:06:01;;;;;;;28.63;10.68;;;;;;;;;;4868178;29;20599;-79
2021/12/22 11:08:27;;;;;;;29.30;10.13;;;;;;;;;;4845745;29;20451;-79
2021/12/22 11:10:53;;;;;;;24.23;9.15;;;;;;;;;;4848737;29;20031;-81
2021/12/22 11:13:24;;;;;;;25.27;10.35;;;;;;;;;;4831347;29;20034;-80
2021/12/22 11:15:50;;;;;;;22.33;8.45;;;;;;;;;;4832006;29;20057;-80
2021/12/22 11:18:25;;;;;;;30.13;12.07;;;;;;;;;;4851281;29;20471;-80
2021/12/22 11:21:13;;;;;;;30.50;11.65;;;;;;;;;;4853573;29;20410;-80
2021/12/22 11:23:40;;;;;;;21.83;8.85;;;;;;;;;;4848626;29;20517;-80
2021/12/22 11:26:06;;;;;;;16.98;8.55;;;;;;;;;;4837642;29;20052;-80
2021/12/22 11:28:36;;;;;;;22.98;9.85;;;;;;;;;;4846707;29;20094;-80
2021/12/22 11:31:03;;;;;;;12.55;6.97;;;;;;;;;;4845475;29;20067;-80
2021/12/22 11:33:31;;;;;;;21.52;9.13;;;;;;;;;;4834205;29;20486;-81
2021/12/22 11:35:58;;;;;;;26.25;10.70;;;;;;;;;;4843385;29;20558;-80
2021/12/22 11:38:26;;;;;;;23.70;10.90;;;;;;;;;;4848550;29;20033;-80
2021/12/22 11:41:06;;;;;;;20.02;9.70;;;;;;;;;;4830795;29;20125;-80
2021/12/22 11:43:32;;;;;;;23.65;8.35;;;;;;;;;;4837174;29;20042;-80
2021/12/22 11:45:58;;;;;;;13.75;6.50;;;;;;;;;;4837163;29;20698;-81
2021/12/22 11:48:24;;;;;;;20.90;9.55;;;;;;;;;;4838999;29;20036;-80
2021/12/22 11:50:50;;;;;;;23.42;10.07;;;;;;;;;;4838182;29;20037;-80
2021/12/22 11:53:17;;;;;;;24.90;10.60;;;;;;;;;;4836597;29;20185;-80
2021/12/22 11:55:50;;;;;;;19.85;8.27;;;;;;;;;;4855709;29;20037;-80
2021/12/22 11:58:16;;;;;;;22.88;8.48;;;;;;;;;;4850448;29;20025;-81
2021/12/22 12:00:43;;;;;;;20.55;9.52;;;;;;;;;;4851747;29;20040;-81
2021/12/22 12:03:28;;;;;;;18.45;9.30;;;;;;;;;;4836861;29;20505;-80
2021/12/22 12:06:09;;;;;;;20.27;8.88;;;;;;;;;;4852735;29;20065;-80
2021/12/22 12:08:45;;;;;;;21.75;9.55;;;;;;;;;;4856369;29;20569;-80
2021/12/22 12:11:13;;;;;;;21.88;9.30;;;;;;;;;;4868885;29;20048;-81
2021/12/22 12:21:51;;;;;;;16.80;8.65;;;;;;;;;;4873392;29;20112;-80
2021/12/22 12:24:35;;;;;;;18.98;8.70;;;;;;;;;;4866774;29;20553;-80
2021/12/22 12:27:04;;;;;;;26.33;8.95;;;;;;;;;;4853616;29;20045;-80
2021/12/22 12:29:49;;;;;;;25.33;9.73;;;;;;;;;;4871455;29;20040;-80
2021/12/22 12:32:38;;;;;;;20.15;8.85;;;;;;;;;;4870836;29;20040;-80
2021/12/22 12:35:16;;;;;;;11.55;6.90;;;;;;;;;;4857628;29;20036;-80
2021/12/22 12:38:01;;;;;;;15.13;7.88;;;;;;;;;;4869301;29;20084;-80
2021/12/22 12:40:46;;;;;;;21.73;8.98;;;;;;;;;;4868636;29;20059;-80
2021/12/22 12:43:12;;;;;;;17.35;8.77;;;;;;;;;;4855961;29;20108;-80
2021/12/22 12:45:46;;;;;;;7.63;3.75;;;;;;;;;;4859901;29;20056;-80
2021/12/22 12:48:44;;;;;;;23.90;9.68;;;;;;;;;;4854388;29;20045;-81
2021/12/22 12:51:14;;;;;;;18.60;9.20;;;;;;;;;;4826041;29;20183;-81
2021/12/22 12:53:45;;;;;;;18.92;9.15;;;;;;;;;;4856281;29;20514;-81
2021/12/22 12:56:12;;;;;;;11.77;7.07;;;;;;;;;;4870919;29;20541;-80
2021/12/22 12:58:51;;;;;;;14.32;5.80;;;;;;;;;;4868022;29;20029;-81
2021/12/22 13:01:17;;;;;;;20.13;6.88;;;;;;;;;;4853823;29;20036;-80
2021/12/22 13:03:48;;;;;;;12.73;6.55;;;;;;;;;;4855565;29;20172;-81
2021/12/22 13:06:14;;;;;;;23.75;10.18;;;;;;;;;;4854357;29;20176;-80
2021/12/22 13:08:40;;;;;;;20.83;8.40;;;;;;;;;;4868867;29;20041;-81
2021/12/22 13:11:14;;;;;;;19.27;8.18;;;;;;;;;;4859312;29;20403;-81
2021/12/22 13:15:45;;;;;;;19.55;8.95;;;;;;;;;;4850759;29;20198;-80
2021/12/22 13:16:39;;;;;;;14.57;5.80;;;;;;;;;;4870447;29;20039;-80
2021/12/22 13:19:05;;;;;;;20.90;8.55;;;;;;;;;;4853569;29;20044;-81
2021/12/22 13:21:31;;;;;;;17.15;6.95;;;;;;;;;;4869653;29;20037;-80
2021/12/22 13:23:57;;;;;;;16.70;9.35;;;;;;;;;;4867084;29;20493;-80
2021/12/22 13:26:23;;;;;;;17.65;9.13;;;;;;;;;;4856508;29;20032;-80
2021/12/22 13:28:49;;;;;;;20.27;9.82;;;;;;;;;;4854369;29;20041;-81
2021/12/22 13:31:15;;;;;;;17.45;8.93;;;;;;;;;;4854210;29;20484;-81
2021/12/22 13:33:52;;;;;;;21.88;9.15;;;;;;;;;;4870074;29;20128;-80
2021/12/22 13:36:18;;;;;;;18.17;8.75;;;;;;;;;;4855563;29;20108;-80
2021/12/22 13:38:45;;;;;;;23.50;10.15;;;;;;;;;;4850122;29;20036;-79
2021/12/22 13:41:16;;;;;;;16.67;8.18;;;;;;;;;;4872610;29;20033;-80
2021/12/22 13:43:42;;;;;;;22.58;9.10;;;;;;;;;;4849928;29;20822;-80
2021/12/22 13:46:11;;;;;;;20.42;9.07;;;;;;;;;;4855542;29;20390;-80
2021/12/22 13:48:40;;;;;;;17.52;9.50;;;;;;;;;;4853765;29;20506;-80
2021/12/22 13:51:07;;;;;;;21.98;9.52;;;;;;;;;;4854040;29;20425;-81
2021/12/22 13:53:34;;;;;;;12.70;6.13;;;;;;;;;;4857074;29;20123;-80
2021/12/22 13:56:01;;;;;;;18.65;9.30;;;;;;;;;;4851900;29;20037;-81
2021/12/22 13:58:31;;;;;;;23.30;9.65;;;;;;;;;;4852332;29;20119;-79
2021/12/22 14:01:14;;;;;;;23.13;9.68;;;;;;;;;;4853029;29;20033;-80
2021/12/22 14:03:40;;;;;;;22.55;8.45;;;;;;;;;;4851819;29;20459;-80
2021/12/22 14:06:07;;;;;;;22.00;9.32;;;;;;;;;;4871311;29;20033;-80
2021/12/22 14:08:41;;;;;;;21.27;9.82;;;;;;;;;;4869102;29;20077;-80
2021/12/22 14:11:33;;;;;;;20.42;9.68;;;;;;;;;;4867281;29;20136;-80
2021/12/22 14:14:38;;;;;;;26.20;11.07;;;;;;;;;;4853895;29;20112;-80
2021/12/22 14:17:05;;;;;;;25.15;10.65;;;;;;;;;;4797203;29;20030;-80
2021/12/22 14:19:32;;;;;;;24.60;11.95;;;;;;;;;;4797114;29;20034;-80
2021/12/22 14:22:04;;;;;;;24.98;10.85;;;;;;;;;;4825931;29;20049;-80
2021/12/22 14:24:41;;;;;;;22.27;9.90;;;;;;;;;;4852602;29;20033;-80
2021/12/22 14:27:09;;;;;;;23.73;8.48;;;;;;;;;;4867238;29;20037;-80
2021/12/22 14:29:45;;;;;;;21.25;9.52;;;;;;;;;;4868672;29;20051;-80
2021/12/22 14:32:11;;;;;;;19.48;9.50;;;;;;;;;;4854165;29;20542;-81
2021/12/22 14:34:56;;;;;;;22.23;9.77;;;;;;;;;;4854851;29;20078;-80
2021/12/22 14:37:28;;;;;;;26.80;9.63;;;;;;;;;;4864865;29;20064;-81
2021/12/22 14:39:54;;;;;;;23.10;10.15;;;;;;;;;;4868809;29;20449;-81
2021/12/22 14:42:25;;;;;;;25.13;10.07;;;;;;;;;;4851661;29;20040;-80
2021/12/22 14:44:51;;;;;;;22.90;9.77;;;;;;;;;;4849481;29;20051;-80
2021/12/22 14:47:21;;;;;;;26.77;12.07;;;;;;;;;;4853825;29;20581;-80
2021/12/22 14:49:48;;;;;;;26.45;11.15;;;;;;;;;;4853000;29;20052;-80
2021/12/22 14:52:14;;;;;;;33.65;10.82;;;;;;;;;;4868238;29;20022;-80
2021/12/22 14:54:41;;;;;;;29.02;11.35;;;;;;;;;;4862248;29;20567;-80
2021/12/22 14:57:07;;;;;;;19.27;9.60;;;;;;;;;;4853241;29;20056;-80
2021/12/22 14:59:34;;;;;;;31.48;11.27;;;;;;;;;;4868124;29;20120;-81
2021/12/22 15:02:01;;;;;;;24.88;10.93;;;;;;;;;;4853736;29;20445;-80